sensor_id;sensor_type;location;lat;lon;timestamp;temperature;humidity
30865;DHT22;17574;49.418;11.038;2022-12-08T00:02:00;3.90;75.40
30865;DHT22;17574;49.418;11.038;2022-12-08T00:04:27;3.90;75.30
30865;DHT22;17574;49.418;11.038;2022-12-08T00:06:54;3.90;75.30
30865;DHT22;17574;49.418;11.038;2022-12-08T00:09:40;3.90;75.00
30865;DHT22;17574;49.418;11.038;2022-12-08T00:12:10;3.80;74.20
30865;DHT22;17574;49.418;11.038;2022-12-08T00:17:04;3.80;75.10
30865;DHT22;17574;49.418;11.038;2022-12-08T00:19:31;3.70;75.10
30865;DHT22;17574;49.418;11.038;2022-12-08T00:21:58;3.70;75.90
30865;DHT22;17574;49.418;11.038;2022-12-08T00:24:29;3.70;76.70
30865;DHT22;17574;49.418;11.038;2022-12-08T00:26:56;3.70;77.20
30865;DHT22;17574;49.418;11.038;2022-12-08T00:29:23;3.70;77.40
30865;DHT22;17574;49.418;11.038;2022-12-08T00:31:49;3.70;78.20
30865;DHT22;17574;49.418;11.038;2022-12-08T00:34:16;3.70;78.90
30865;DHT22;17574;49.418;11.038;2022-12-08T00:36:43;3.70;79.20
30865;DHT22;17574;49.418;11.038;2022-12-08T00:39:10;3.80;80.20
30865;DHT22;17574;49.418;11.038;2022-12-08T00:41:36;3.70;80.60
30865;DHT22;17574;49.418;11.038;2022-12-08T00:44:21;3.70;81.40
30865;DHT22;17574;49.418;11.038;2022-12-08T00:46:48;3.70;81.30
30865;DHT22;17574;49.418;11.038;2022-12-08T00:49:15;3.70;80.40
30865;DHT22;17574;49.418;11.038;2022-12-08T00:51:42;3.70;80.20
30865;DHT22;17574;49.418;11.038;2022-12-08T00:54:09;3.70;80.30
30865;DHT22;17574;49.418;11.038;2022-12-08T00:56:36;3.70;80.70
30865;DHT22;17574;49.418;11.038;2022-12-08T00:59:03;3.70;81.40
30865;DHT22;17574;49.418;11.038;2022-12-08T01:01:29;3.70;80.60
30865;DHT22;17574;49.418;11.038;2022-12-08T01:03:56;3.70;79.50
30865;DHT22;17574;49.418;11.038;2022-12-08T01:06:23;3.70;79.20
30865;DHT22;17574;49.418;11.038;2022-12-08T01:08:49;3.60;78.10
30865;DHT22;17574;49.418;11.038;2022-12-08T01:11:17;3.60;77.30
30865;DHT22;17574;49.418;11.038;2022-12-08T01:13:44;3.60;77.30
30865;DHT22;17574;49.418;11.038;2022-12-08T01:16:20;3.50;76.70
30865;DHT22;17574;49.418;11.038;2022-12-08T01:18:47;3.50;76.20
30865;DHT22;17574;49.418;11.038;2022-12-08T01:21:14;3.40;77.00
30865;DHT22;17574;49.418;11.038;2022-12-08T01:23:41;3.40;77.10
30865;DHT22;17574;49.418;11.038;2022-12-08T01:26:07;3.40;76.70
30865;DHT22;17574;49.418;11.038;2022-12-08T01:28:36;3.40;76.60
30865;DHT22;17574;49.418;11.038;2022-12-08T01:31:02;3.40;76.40
30865;DHT22;17574;49.418;11.038;2022-12-08T01:33:29;3.40;76.00
30865;DHT22;17574;49.418;11.038;2022-12-08T01:36:01;3.30;76.50
30865;DHT22;17574;49.418;11.038;2022-12-08T01:38:28;3.30;77.00
30865;DHT22;17574;49.418;11.038;2022-12-08T01:40:54;3.30;77.50
30865;DHT22;17574;49.418;11.038;2022-12-08T01:43:21;3.20;77.40
30865;DHT22;17574;49.418;11.038;2022-12-08T01:45:47;3.20;77.60
30865;DHT22;17574;49.418;11.038;2022-12-08T01:48:21;3.30;76.60
30865;DHT22;17574;49.418;11.038;2022-12-08T01:50:49;3.20;75.30
30865;DHT22;17574;49.418;11.038;2022-12-08T01:53:18;3.10;75.10
30865;DHT22;17574;49.418;11.038;2022-12-08T01:58:46;3.10;73.60
30865;DHT22;17574;49.418;11.038;2022-12-08T02:01:13;3.10;74.20
30865;DHT22;17574;49.418;11.038;2022-12-08T02:03:40;3.00;76.50
30865;DHT22;17574;49.418;11.038;2022-12-08T02:06:08;2.90;76.70
30865;DHT22;17574;49.418;11.038;2022-12-08T02:08:35;2.90;76.30
30865;DHT22;17574;49.418;11.038;2022-12-08T02:11:04;2.90;76.00
30865;DHT22;17574;49.418;11.038;2022-12-08T02:13:31;2.80;76.10
30865;DHT22;17574;49.418;11.038;2022-12-08T02:16:09;2.80;76.70
30865;DHT22;17574;49.418;11.038;2022-12-08T02:18:59;2.80;76.50
30865;DHT22;17574;49.418;11.038;2022-12-08T02:21:55;2.70;76.50
30865;DHT22;17574;49.418;11.038;2022-12-08T02:24:28;2.70;76.90
30865;DHT22;17574;49.418;11.038;2022-12-08T02:35:02;2.50;78.60
30865;DHT22;17574;49.418;11.038;2022-12-08T02:37:31;2.60;77.80
30865;DHT22;17574;49.418;11.038;2022-12-08T02:42:47;2.50;77.30
30865;DHT22;17574;49.418;11.038;2022-12-08T02:45:18;2.50;77.60
30865;DHT22;17574;49.418;11.038;2022-12-08T02:47:47;2.50;78.10
30865;DHT22;17574;49.418;11.038;2022-12-08T02:50:15;2.50;76.50
30865;DHT22;17574;49.418;11.038;2022-12-08T02:52:45;2.50;77.10
30865;DHT22;17574;49.418;11.038;2022-12-08T02:55:14;2.40;77.30
30865;DHT22;17574;49.418;11.038;2022-12-08T02:57:55;2.40;76.30
30865;DHT22;17574;49.418;11.038;2022-12-08T03:00:24;2.40;76.30
30865;DHT22;17574;49.418;11.038;2022-12-08T03:10:42;2.20;76.60
30865;DHT22;17574;49.418;11.038;2022-12-08T03:13:12;1.60;77.70
30865;DHT22;17574;49.418;11.038;2022-12-08T03:15:40;2.20;77.00
30865;DHT22;17574;49.418;11.038;2022-12-08T03:18:08;2.20;76.10
30865;DHT22;17574;49.418;11.038;2022-12-08T03:20:36;2.10;76.00
30865;DHT22;17574;49.418;11.038;2022-12-08T03:23:04;2.20;76.20
30865;DHT22;17574;49.418;11.038;2022-12-08T03:25:32;2.10;75.10
30865;DHT22;17574;49.418;11.038;2022-12-08T03:28:02;2.10;73.70
30865;DHT22;17574;49.418;11.038;2022-12-08T03:30:29;2.00;73.90
30865;DHT22;17574;49.418;11.038;2022-12-08T03:33:08;2.00;75.50
30865;DHT22;17574;49.418;11.038;2022-12-08T03:35:39;2.00;75.60
30865;DHT22;17574;49.418;11.038;2022-12-08T03:38:08;2.00;76.00
30865;DHT22;17574;49.418;11.038;2022-12-08T03:40:36;2.00;77.40
30865;DHT22;17574;49.418;11.038;2022-12-08T03:43:03;2.00;78.20
30865;DHT22;17574;49.418;11.038;2022-12-08T03:45:29;2.00;78.40
30865;DHT22;17574;49.418;11.038;2022-12-08T03:47:56;2.00;79.30
30865;DHT22;17574;49.418;11.038;2022-12-08T03:50:23;2.00;78.80
30865;DHT22;17574;49.418;11.038;2022-12-08T03:52:49;2.00;78.90
30865;DHT22;17574;49.418;11.038;2022-12-08T03:55:16;2.00;78.90
30865;DHT22;17574;49.418;11.038;2022-12-08T03:57:43;1.90;80.00
30865;DHT22;17574;49.418;11.038;2022-12-08T04:00:11;2.00;80.10
30865;DHT22;17574;49.418;11.038;2022-12-08T04:02:39;1.90;81.10
30865;DHT22;17574;49.418;11.038;2022-12-08T04:05:06;1.90;82.10
30865;DHT22;17574;49.418;11.038;2022-12-08T04:07:32;1.90;82.70
30865;DHT22;17574;49.418;11.038;2022-12-08T04:09:59;1.90;83.40
30865;DHT22;17574;49.418;11.038;2022-12-08T04:12:25;1.90;83.70
30865;DHT22;17574;49.418;11.038;2022-12-08T04:14:52;1.90;83.90
30865;DHT22;17574;49.418;11.038;2022-12-08T04:17:18;2.00;84.00
30865;DHT22;17574;49.418;11.038;2022-12-08T04:19:45;2.00;84.00
30865;DHT22;17574;49.418;11.038;2022-12-08T04:22:11;2.00;84.00
30865;DHT22;17574;49.418;11.038;2022-12-08T04:24:38;2.00;84.00
30865;DHT22;17574;49.418;11.038;2022-12-08T04:27:05;2.10;84.10
30865;DHT22;17574;49.418;11.038;2022-12-08T04:29:31;2.10;84.10
30865;DHT22;17574;49.418;11.038;2022-12-08T04:31:58;2.20;83.70
30865;DHT22;17574;49.418;11.038;2022-12-08T04:34:24;2.10;83.00
30865;DHT22;17574;49.418;11.038;2022-12-08T04:36:51;2.30;82.70
30865;DHT22;17574;49.418;11.038;2022-12-08T04:39:17;2.10;82.40
30865;DHT22;17574;49.418;11.038;2022-12-08T04:41:44;2.20;82.80
30865;DHT22;17574;49.418;11.038;2022-12-08T04:44:11;2.20;83.00
30865;DHT22;17574;49.418;11.038;2022-12-08T04:46:37;2.20;82.90
30865;DHT22;17574;49.418;11.038;2022-12-08T04:49:09;2.20;82.60
30865;DHT22;17574;49.418;11.038;2022-12-08T04:51:35;2.20;82.50
30865;DHT22;17574;49.418;11.038;2022-12-08T04:54:02;2.20;82.40
30865;DHT22;17574;49.418;11.038;2022-12-08T04:56:29;2.20;82.50
30865;DHT22;17574;49.418;11.038;2022-12-08T04:58:55;2.20;81.80
30865;DHT22;17574;49.418;11.038;2022-12-08T05:01:22;2.20;81.90
30865;DHT22;17574;49.418;11.038;2022-12-08T05:03:49;2.20;82.50
30865;DHT22;17574;49.418;11.038;2022-12-08T05:06:15;2.20;82.30
30865;DHT22;17574;49.418;11.038;2022-12-08T05:08:42;2.20;82.40
30865;DHT22;17574;49.418;11.038;2022-12-08T05:11:09;2.30;82.20
30865;DHT22;17574;49.418;11.038;2022-12-08T05:13:36;2.30;82.10
30865;DHT22;17574;49.418;11.038;2022-12-08T05:16:03;2.30;82.20
30865;DHT22;17574;49.418;11.038;2022-12-08T05:18:30;2.30;82.20
30865;DHT22;17574;49.418;11.038;2022-12-08T05:20:57;2.30;81.50
30865;DHT22;17574;49.418;11.038;2022-12-08T05:23:24;2.30;81.60
30865;DHT22;17574;49.418;11.038;2022-12-08T05:25:51;2.40;81.70
30865;DHT22;17574;49.418;11.038;2022-12-08T05:28:17;2.40;81.00
30865;DHT22;17574;49.418;11.038;2022-12-08T05:31:04;2.40;81.50
30865;DHT22;17574;49.418;11.038;2022-12-08T05:33:30;2.40;81.40
30865;DHT22;17574;49.418;11.038;2022-12-08T05:35:57;2.40;80.40
30865;DHT22;17574;49.418;11.038;2022-12-08T05:38:23;2.40;80.40
30865;DHT22;17574;49.418;11.038;2022-12-08T05:40:50;2.40;80.40
30865;DHT22;17574;49.418;11.038;2022-12-08T05:43:17;2.40;80.50
30865;DHT22;17574;49.418;11.038;2022-12-08T05:45:43;2.40;80.40
30865;DHT22;17574;49.418;11.038;2022-12-08T05:48:10;2.50;80.50
30865;DHT22;17574;49.418;11.038;2022-12-08T05:50:37;2.40;80.40
30865;DHT22;17574;49.418;11.038;2022-12-08T05:53:03;2.40;80.40
30865;DHT22;17574;49.418;11.038;2022-12-08T05:55:30;2.50;80.50
30865;DHT22;17574;49.418;11.038;2022-12-08T05:57:56;2.50;80.40
30865;DHT22;17574;49.418;11.038;2022-12-08T06:00:27;2.50;80.40
30865;DHT22;17574;49.418;11.038;2022-12-08T06:02:53;2.50;80.70
30865;DHT22;17574;49.418;11.038;2022-12-08T06:05:20;2.50;80.40
30865;DHT22;17574;49.418;11.038;2022-12-08T06:07:47;2.50;80.40
30865;DHT22;17574;49.418;11.038;2022-12-08T06:10:13;2.50;80.40
30865;DHT22;17574;49.418;11.038;2022-12-08T06:12:40;2.50;80.40
30865;DHT22;17574;49.418;11.038;2022-12-08T06:15:07;2.50;80.40
30865;DHT22;17574;49.418;11.038;2022-12-08T06:17:33;2.50;80.40
30865;DHT22;17574;49.418;11.038;2022-12-08T06:20:00;2.60;80.50
30865;DHT22;17574;49.418;11.038;2022-12-08T06:22:27;2.50;80.40
30865;DHT22;17574;49.418;11.038;2022-12-08T06:24:54;2.60;80.50
30865;DHT22;17574;49.418;11.038;2022-12-08T06:27:20;2.60;79.80
30865;DHT22;17574;49.418;11.038;2022-12-08T06:29:47;2.60;79.70
30865;DHT22;17574;49.418;11.038;2022-12-08T06:32:14;2.60;79.50
30865;DHT22;17574;49.418;11.038;2022-12-08T06:34:40;2.50;79.80
30865;DHT22;17574;49.418;11.038;2022-12-08T06:37:07;2.60;80.40
30865;DHT22;17574;49.418;11.038;2022-12-08T06:39:33;2.60;80.40
30865;DHT22;17574;49.418;11.038;2022-12-08T06:42:00;3.20;80.00
30865;DHT22;17574;49.418;11.038;2022-12-08T06:44:45;2.60;79.20
30865;DHT22;17574;49.418;11.038;2022-12-08T06:47:12;2.60;78.30
30865;DHT22;17574;49.418;11.038;2022-12-08T06:49:39;2.60;78.60
30865;DHT22;17574;49.418;11.038;2022-12-08T06:52:05;2.60;78.20
30865;DHT22;17574;49.418;11.038;2022-12-08T06:54:32;2.60;78.70
30865;DHT22;17574;49.418;11.038;2022-12-08T06:56:58;2.60;78.70
30865;DHT22;17574;49.418;11.038;2022-12-08T06:59:25;2.60;78.40
30865;DHT22;17574;49.418;11.038;2022-12-08T07:01:52;2.60;78.90
30865;DHT22;17574;49.418;11.038;2022-12-08T07:04:18;2.60;79.60
30865;DHT22;17574;49.418;11.038;2022-12-08T07:06:45;2.60;80.50
30865;DHT22;17574;49.418;11.038;2022-12-08T07:09:11;2.60;80.40
30865;DHT22;17574;49.418;11.038;2022-12-08T07:11:38;2.60;79.40
30865;DHT22;17574;49.418;11.038;2022-12-08T07:14:04;2.70;79.40
30865;DHT22;17574;49.418;11.038;2022-12-08T07:16:31;2.70;78.40
30865;DHT22;17574;49.418;11.038;2022-12-08T07:18:58;2.70;78.60
30865;DHT22;17574;49.418;11.038;2022-12-08T07:21:24;2.70;78.60
30865;DHT22;17574;49.418;11.038;2022-12-08T07:23:51;2.70;78.80
30865;DHT22;17574;49.418;11.038;2022-12-08T07:26:23;2.70;79.00
30865;DHT22;17574;49.418;11.038;2022-12-08T07:28:49;2.70;77.90
30865;DHT22;17574;49.418;11.038;2022-12-08T07:31:17;2.70;77.70
30865;DHT22;17574;49.418;11.038;2022-12-08T07:33:44;2.50;77.30
30865;DHT22;17574;49.418;11.038;2022-12-08T07:36:11;2.70;76.90
30865;DHT22;17574;49.418;11.038;2022-12-08T07:38:38;2.70;77.30
30865;DHT22;17574;49.418;11.038;2022-12-08T07:41:04;2.70;77.70
30865;DHT22;17574;49.418;11.038;2022-12-08T07:43:31;2.80;78.00
30865;DHT22;17574;49.418;11.038;2022-12-08T07:45:58;2.80;77.50
30865;DHT22;17574;49.418;11.038;2022-12-08T07:48:25;2.80;77.20
30865;DHT22;17574;49.418;11.038;2022-12-08T07:50:58;2.80;77.50
30865;DHT22;17574;49.418;11.038;2022-12-08T07:53:24;2.80;77.40
30865;DHT22;17574;49.418;11.038;2022-12-08T07:55:51;2.80;77.50
30865;DHT22;17574;49.418;11.038;2022-12-08T07:58:17;2.90;77.50
30865;DHT22;17574;49.418;11.038;2022-12-08T08:00:44;2.80;76.60
30865;DHT22;17574;49.418;11.038;2022-12-08T08:03:10;2.80;75.40
30865;DHT22;17574;49.418;11.038;2022-12-08T08:05:37;2.90;76.20
30865;DHT22;17574;49.418;11.038;2022-12-08T08:08:04;2.80;76.70
30865;DHT22;17574;49.418;11.038;2022-12-08T08:10:31;2.90;74.90
30865;DHT22;17574;49.418;11.038;2022-12-08T08:12:58;2.90;75.40
30865;DHT22;17574;49.418;11.038;2022-12-08T08:15:25;2.80;75.30
30865;DHT22;17574;49.418;11.038;2022-12-08T08:17:52;2.90;76.00
30865;DHT22;17574;49.418;11.038;2022-12-08T08:20:19;2.90;75.80
30865;DHT22;17574;49.418;11.038;2022-12-08T08:22:46;2.90;74.40
30865;DHT22;17574;49.418;11.038;2022-12-08T08:25:13;2.90;75.50
30865;DHT22;17574;49.418;11.038;2022-12-08T08:27:40;3.00;75.60
30865;DHT22;17574;49.418;11.038;2022-12-08T08:30:07;3.00;74.10
30865;DHT22;17574;49.418;11.038;2022-12-08T08:32:35;3.10;74.30
30865;DHT22;17574;49.418;11.038;2022-12-08T08:35:02;3.10;73.60
30865;DHT22;17574;49.418;11.038;2022-12-08T08:37:29;3.20;72.80
30865;DHT22;17574;49.418;11.038;2022-12-08T08:39:55;3.10;73.20
30865;DHT22;17574;49.418;11.038;2022-12-08T08:42:22;3.10;72.80
30865;DHT22;17574;49.418;11.038;2022-12-08T08:44:49;3.10;73.30
30865;DHT22;17574;49.418;11.038;2022-12-08T08:47:15;3.10;72.70
30865;DHT22;17574;49.418;11.038;2022-12-08T08:49:42;3.10;72.80
30865;DHT22;17574;49.418;11.038;2022-12-08T08:52:08;3.10;72.80
30865;DHT22;17574;49.418;11.038;2022-12-08T08:54:35;3.10;73.30
30865;DHT22;17574;49.418;11.038;2022-12-08T08:57:02;3.10;72.80
30865;DHT22;17574;49.418;11.038;2022-12-08T08:59:28;3.20;72.80
30865;DHT22;17574;49.418;11.038;2022-12-08T09:01:55;3.20;73.40
30865;DHT22;17574;49.418;11.038;2022-12-08T09:04:22;3.20;72.80
30865;DHT22;17574;49.418;11.038;2022-12-08T09:06:48;3.30;72.90
30865;DHT22;17574;49.418;11.038;2022-12-08T09:09:15;3.30;72.90
30865;DHT22;17574;49.418;11.038;2022-12-08T09:11:42;3.40;71.20
30865;DHT22;17574;49.418;11.038;2022-12-08T09:14:10;3.40;71.80
30865;DHT22;17574;49.418;11.038;2022-12-08T09:16:36;3.40;70.90
30865;DHT22;17574;49.418;11.038;2022-12-08T09:19:08;3.50;71.10
30865;DHT22;17574;49.418;11.038;2022-12-08T09:21:34;3.50;70.00
30865;DHT22;17574;49.418;11.038;2022-12-08T09:24:01;3.50;68.60
30865;DHT22;17574;49.418;11.038;2022-12-08T09:26:27;3.60;67.90
30865;DHT22;17574;49.418;11.038;2022-12-08T09:28:54;3.60;67.20
30865;DHT22;17574;49.418;11.038;2022-12-08T09:31:21;3.70;67.00
30865;DHT22;17574;49.418;11.038;2022-12-08T09:33:48;3.70;67.10
30865;DHT22;17574;49.418;11.038;2022-12-08T09:36:18;3.80;64.90
30865;DHT22;17574;49.418;11.038;2022-12-08T09:38:45;3.80;65.00
30865;DHT22;17574;49.418;11.038;2022-12-08T09:46:08;4.00;65.60
30865;DHT22;17574;49.418;11.038;2022-12-08T09:48:41;3.70;61.50
30865;DHT22;17574;49.418;11.038;2022-12-08T09:51:08;4.00;59.60
30865;DHT22;17574;49.418;11.038;2022-12-08T09:53:49;4.10;61.10
30865;DHT22;17574;49.418;11.038;2022-12-08T09:56:18;4.10;60.80
30865;DHT22;17574;49.418;11.038;2022-12-08T10:01:26;4.20;59.60
30865;DHT22;17574;49.418;11.038;2022-12-08T10:03:53;4.20;59.50
30865;DHT22;17574;49.418;11.038;2022-12-08T10:08:51;4.30;56.10
30865;DHT22;17574;49.418;11.038;2022-12-08T10:11:26;4.30;56.00
30865;DHT22;17574;49.418;11.038;2022-12-08T10:16:46;4.30;56.00
30865;DHT22;17574;49.418;11.038;2022-12-08T10:19:20;4.40;56.10
30865;DHT22;17574;49.418;11.038;2022-12-08T10:21:47;4.40;56.10
30865;DHT22;17574;49.418;11.038;2022-12-08T10:24:21;4.40;53.60
30865;DHT22;17574;49.418;11.038;2022-12-08T10:26:49;4.40;53.30
30865;DHT22;17574;49.418;11.038;2022-12-08T10:29:15;4.50;53.50
30865;DHT22;17574;49.418;11.038;2022-12-08T10:31:42;4.60;53.50
30865;DHT22;17574;49.418;11.038;2022-12-08T10:34:13;4.70;50.10
30865;DHT22;17574;49.418;11.038;2022-12-08T10:36:44;4.80;49.90
30865;DHT22;17574;49.418;11.038;2022-12-08T10:42:15;4.80;48.00
30865;DHT22;17574;49.418;11.038;2022-12-08T10:47:28;5.00;46.20
30865;DHT22;17574;49.418;11.038;2022-12-08T10:50:29;5.10;46.20
30865;DHT22;17574;49.418;11.038;2022-12-08T10:55:43;5.30;39.10
30865;DHT22;17574;49.418;11.038;2022-12-08T10:58:22;5.50;38.50
30865;DHT22;17574;49.418;11.038;2022-12-08T11:00:58;5.50;36.50
30865;DHT22;17574;49.418;11.038;2022-12-08T11:03:27;6.00;33.50
30865;DHT22;17574;49.418;11.038;2022-12-08T11:05:55;6.60;28.60
30865;DHT22;17574;49.418;11.038;2022-12-08T11:08:22;7.00;23.50
30865;DHT22;17574;49.418;11.038;2022-12-08T11:10:49;7.50;19.40
30865;DHT22;17574;49.418;11.038;2022-12-08T11:13:25;8.30;13.30
30865;DHT22;17574;49.418;11.038;2022-12-08T11:15:53;8.80;9.80
30865;DHT22;17574;49.418;11.038;2022-12-08T11:18:27;8.80;9.80
30865;DHT22;17574;49.418;11.038;2022-12-08T11:20:55;9.00;7.60
30865;DHT22;17574;49.418;11.038;2022-12-08T11:23:23;8.90;5.40
30865;DHT22;17574;49.418;11.038;2022-12-08T11:25:50;8.90;5.00
30865;DHT22;17574;49.418;11.038;2022-12-08T11:28:20;8.80;5.00
30865;DHT22;17574;49.418;11.038;2022-12-08T11:30:49;9.00;5.10
30865;DHT22;17574;49.418;11.038;2022-12-08T11:35:46;9.00;2.10
30865;DHT22;17574;49.418;11.038;2022-12-08T11:38:21;9.00;2.00
30865;DHT22;17574;49.418;11.038;2022-12-08T11:40:51;9.10;2.10
30865;DHT22;17574;49.418;11.038;2022-12-08T11:45:45;8.50;2.60
30865;DHT22;17574;49.418;11.038;2022-12-08T11:48:15;8.20;6.10
30865;DHT22;17574;49.418;11.038;2022-12-08T11:50:47;7.90;7.50
30865;DHT22;17574;49.418;11.038;2022-12-08T11:53:25;7.70;9.60
30865;DHT22;17574;49.418;11.038;2022-12-08T11:55:57;7.60;8.90
30865;DHT22;17574;49.418;11.038;2022-12-08T11:58:25;7.50;8.90
30865;DHT22;17574;49.418;11.038;2022-12-08T12:00:53;7.40;8.80
30865;DHT22;17574;49.418;11.038;2022-12-08T12:03:36;7.10;10.50
30865;DHT22;17574;49.418;11.038;2022-12-08T12:17:55;6.60;18.40
30865;DHT22;17574;49.418;11.038;2022-12-08T12:19:57;6.50;18.90
30865;DHT22;17574;49.418;11.038;2022-12-08T12:22:25;6.40;19.00
30865;DHT22;17574;49.418;11.038;2022-12-08T12:24:54;6.30;18.80
30865;DHT22;17574;49.418;11.038;2022-12-08T12:27:42;6.20;20.50
30865;DHT22;17574;49.418;11.038;2022-12-08T12:30:18;6.10;20.60
30865;DHT22;17574;49.418;11.038;2022-12-08T12:32:53;6.10;19.90
30865;DHT22;17574;49.418;11.038;2022-12-08T12:35:24;6.00;20.30
30865;DHT22;17574;49.418;11.038;2022-12-08T12:38:03;5.90;21.80
30865;DHT22;17574;49.418;11.038;2022-12-08T12:40:35;5.90;21.40
30865;DHT22;17574;49.418;11.038;2022-12-08T12:45:31;5.70;23.10
30865;DHT22;17574;49.418;11.038;2022-12-08T12:50:48;5.70;25.10
30865;DHT22;17574;49.418;11.038;2022-12-08T13:03:33;5.70;26.00
30865;DHT22;17574;49.418;11.038;2022-12-08T13:06:00;5.70;26.00
30865;DHT22;17574;49.418;11.038;2022-12-08T13:08:27;5.70;26.00
30865;DHT22;17574;49.418;11.038;2022-12-08T13:10:58;5.70;26.00
30865;DHT22;17574;49.418;11.038;2022-12-08T13:13:26;5.80;26.10
30865;DHT22;17574;49.418;11.038;2022-12-08T13:15:54;5.80;25.20
30865;DHT22;17574;49.418;11.038;2022-12-08T13:18:28;5.80;25.20
30865;DHT22;17574;49.418;11.038;2022-12-08T13:21:04;5.80;24.20
30865;DHT22;17574;49.418;11.038;2022-12-08T13:44:39;5.50;25.00
30865;DHT22;17574;49.418;11.038;2022-12-08T13:47:30;5.40;25.80
30865;DHT22;17574;49.418;11.038;2022-12-08T13:50:02;5.40;25.80
30865;DHT22;17574;49.418;11.038;2022-12-08T13:52:50;5.40;25.80
30865;DHT22;17574;49.418;11.038;2022-12-08T13:55:43;5.40;25.80
30865;DHT22;17574;49.418;11.038;2022-12-08T13:58:31;5.30;25.70
30865;DHT22;17574;49.418;11.038;2022-12-08T14:01:18;5.30;26.90
30865;DHT22;17574;49.418;11.038;2022-12-08T14:03:46;5.40;25.80
30865;DHT22;17574;49.418;11.038;2022-12-08T14:06:34;5.30;27.20
30865;DHT22;17574;49.418;11.038;2022-12-08T14:09:03;5.30;26.70
30865;DHT22;17574;49.418;11.038;2022-12-08T14:11:37;5.20;26.70
30865;DHT22;17574;49.418;11.038;2022-12-08T14:14:06;5.20;26.20
30865;DHT22;17574;49.418;11.038;2022-12-08T14:16:38;5.20;26.00
30865;DHT22;17574;49.418;11.038;2022-12-08T14:19:18;5.10;25.60
30865;DHT22;17574;49.418;11.038;2022-12-08T14:21:45;5.10;25.60
30865;DHT22;17574;49.418;11.038;2022-12-08T14:24:12;5.10;25.60
30865;DHT22;17574;49.418;11.038;2022-12-08T14:26:38;5.00;25.50
30865;DHT22;17574;49.418;11.038;2022-12-08T14:29:06;5.00;25.50
30865;DHT22;17574;49.418;11.038;2022-12-08T14:31:33;5.00;25.50
30865;DHT22;17574;49.418;11.038;2022-12-08T14:34:00;5.00;25.50
30865;DHT22;17574;49.418;11.038;2022-12-08T14:36:26;4.90;25.50
30865;DHT22;17574;49.418;11.038;2022-12-08T14:38:54;4.90;25.50
30865;DHT22;17574;49.418;11.038;2022-12-08T14:41:25;4.90;25.40
30865;DHT22;17574;49.418;11.038;2022-12-08T14:43:59;4.80;25.40
30865;DHT22;17574;49.418;11.038;2022-12-08T14:46:26;4.80;25.30
30865;DHT22;17574;49.418;11.038;2022-12-08T14:48:53;4.80;25.40
30865;DHT22;17574;49.418;11.038;2022-12-08T14:51:28;4.80;25.80
30865;DHT22;17574;49.418;11.038;2022-12-08T14:54:00;4.80;25.90
30865;DHT22;17574;49.418;11.038;2022-12-08T14:56:31;4.70;26.30
30865;DHT22;17574;49.418;11.038;2022-12-08T15:01:35;4.70;25.30
30865;DHT22;17574;49.418;11.038;2022-12-08T15:09:27;4.70;26.20
30865;DHT22;17574;49.418;11.038;2022-12-08T15:11:59;4.70;25.30
30865;DHT22;17574;49.418;11.038;2022-12-08T15:14:36;4.70;25.30
30865;DHT22;17574;49.418;11.038;2022-12-08T15:17:03;4.60;26.80
30865;DHT22;17574;49.418;11.038;2022-12-08T15:19:55;4.70;26.20
30865;DHT22;17574;49.418;11.038;2022-12-08T15:22:22;4.60;27.10
30865;DHT22;17574;49.418;11.038;2022-12-08T15:24:49;4.60;26.90
30865;DHT22;17574;49.418;11.038;2022-12-08T15:27:20;4.60;27.10
30865;DHT22;17574;49.418;11.038;2022-12-08T15:29:47;4.50;27.20
30865;DHT22;17574;49.418;11.038;2022-12-08T15:32:22;4.00;28.20
30865;DHT22;17574;49.418;11.038;2022-12-08T15:34:49;4.50;29.00
30865;DHT22;17574;49.418;11.038;2022-12-08T15:37:18;4.50;28.50
30865;DHT22;17574;49.418;11.038;2022-12-08T15:39:45;4.60;29.60
30865;DHT22;17574;49.418;11.038;2022-12-08T15:42:12;4.60;29.60
30865;DHT22;17574;49.418;11.038;2022-12-08T15:44:39;4.60;30.40
30865;DHT22;17574;49.418;11.038;2022-12-08T15:47:08;4.60;31.40
30865;DHT22;17574;49.418;11.038;2022-12-08T15:49:37;4.50;30.50
30865;DHT22;17574;49.418;11.038;2022-12-08T15:52:05;4.40;29.90
30865;DHT22;17574;49.418;11.038;2022-12-08T15:54:37;4.40;29.80
30865;DHT22;17574;49.418;11.038;2022-12-08T15:57:04;4.50;30.00
30865;DHT22;17574;49.418;11.038;2022-12-08T15:59:50;4.50;29.80
30865;DHT22;17574;49.418;11.038;2022-12-08T16:02:17;4.50;30.40
30865;DHT22;17574;49.418;11.038;2022-12-08T16:04:48;4.50;30.30
30865;DHT22;17574;49.418;11.038;2022-12-08T16:07:35;4.50;30.80
30865;DHT22;17574;49.418;11.038;2022-12-08T16:10:03;4.50;30.40
30865;DHT22;17574;49.418;11.038;2022-12-08T16:12:31;4.40;30.80
30865;DHT22;17574;49.418;11.038;2022-12-08T16:15:38;4.50;30.60
30865;DHT22;17574;49.418;11.038;2022-12-08T16:18:25;4.60;31.20
30865;DHT22;17574;49.418;11.038;2022-12-08T16:20:52;4.40;31.20
30865;DHT22;17574;49.418;11.038;2022-12-08T16:23:39;4.40;32.20
30865;DHT22;17574;49.418;11.038;2022-12-08T16:26:20;4.40;32.90
30865;DHT22;17574;49.418;11.038;2022-12-08T16:29:08;4.30;32.90
30865;DHT22;17574;49.418;11.038;2022-12-08T16:31:35;4.20;33.00
30865;DHT22;17574;49.418;11.038;2022-12-08T16:34:01;4.40;33.30
30865;DHT22;17574;49.418;11.038;2022-12-08T16:36:28;4.50;32.90
30865;DHT22;17574;49.418;11.038;2022-12-08T16:38:55;4.40;32.30
30865;DHT22;17574;49.418;11.038;2022-12-08T16:41:21;4.30;32.40
30865;DHT22;17574;49.418;11.038;2022-12-08T16:44:07;4.40;33.00
30865;DHT22;17574;49.418;11.038;2022-12-08T16:46:33;4.40;32.20
30865;DHT22;17574;49.418;11.038;2022-12-08T16:49:01;4.40;32.40
30865;DHT22;17574;49.418;11.038;2022-12-08T16:51:28;4.50;33.50
30865;DHT22;17574;49.418;11.038;2022-12-08T16:53:54;4.50;34.00
30865;DHT22;17574;49.418;11.038;2022-12-08T16:56:22;4.40;33.80
30865;DHT22;17574;49.418;11.038;2022-12-08T16:58:57;4.40;34.80
30865;DHT22;17574;49.418;11.038;2022-12-08T17:01:24;4.40;34.80
30865;DHT22;17574;49.418;11.038;2022-12-08T17:03:51;4.50;34.90
30865;DHT22;17574;49.418;11.038;2022-12-08T17:06:38;4.50;35.50
30865;DHT22;17574;49.418;11.038;2022-12-08T17:09:04;4.50;34.80
30865;DHT22;17574;49.418;11.038;2022-12-08T17:11:31;4.40;34.80
30865;DHT22;17574;49.418;11.038;2022-12-08T17:14:04;4.40;34.80
30865;DHT22;17574;49.418;11.038;2022-12-08T17:16:31;4.40;34.80
30865;DHT22;17574;49.418;11.038;2022-12-08T17:18:57;4.40;34.80
30865;DHT22;17574;49.418;11.038;2022-12-08T17:21:24;4.30;34.70
30865;DHT22;17574;49.418;11.038;2022-12-08T17:23:50;4.30;34.70
30865;DHT22;17574;49.418;11.038;2022-12-08T17:26:17;4.40;34.80
30865;DHT22;17574;49.418;11.038;2022-12-08T17:28:44;4.30;34.70
30865;DHT22;17574;49.418;11.038;2022-12-08T17:31:26;4.20;33.00
30865;DHT22;17574;49.418;11.038;2022-12-08T17:33:59;4.30;33.60